createdAt,value
2022-10-18T00:02:52.328Z,20.12
2022-10-18T00:05:55.036Z,20.08
2022-10-18T00:08:57.779Z,20.08
2022-10-18T00:12:00.826Z,20.09
2022-10-18T00:15:04.737Z,20.06
2022-10-18T00:18:08.808Z,20.09
2022-10-18T00:21:12.971Z,20.09
2022-10-18T00:24:15.716Z,20.10
2022-10-18T00:27:18.507Z,20.11
2022-10-18T00:30:21.184Z,20.11
2022-10-18T00:33:25.259Z,20.09
2022-10-18T00:36:29.200Z,20.09
2022-10-18T00:39:32.051Z,20.05
2022-10-18T00:42:35.795Z,20.05
2022-10-18T00:45:38.475Z,19.99
2022-10-18T00:48:42.641Z,19.98
2022-10-18T00:51:47.232Z,19.99
2022-10-18T00:54:50.846Z,20.03
2022-10-18T01:00:57.843Z,19.99
2022-10-18T01:04:01.934Z,20.00
2022-10-18T01:07:09.424Z,19.98
2022-10-18T01:10:20.472Z,19.98
2022-10-18T01:13:35.641Z,19.96
2022-10-18T01:16:40.864Z,19.95
2022-10-18T01:20:01.216Z,19.94
2022-10-18T01:23:07.804Z,19.93
2022-10-18T01:26:18.305Z,19.94
2022-10-18T01:29:25.495Z,19.94
2022-10-18T01:32:31.981Z,19.92
2022-10-18T01:35:37.515Z,19.92
2022-10-18T01:38:41.607Z,19.94
2022-10-18T01:41:45.575Z,19.92
2022-10-18T01:44:49.135Z,19.90
2022-10-18T01:47:53.754Z,19.92
2022-10-18T01:50:56.437Z,19.93
2022-10-18T01:53:59.611Z,19.90
2022-10-18T01:57:05.175Z,19.93
2022-10-18T02:00:12.565Z,19.89
2022-10-18T02:03:20.834Z,19.90
2022-10-18T02:06:26.938Z,19.93
2022-10-18T02:09:34.241Z,19.90
2022-10-18T02:12:38.222Z,19.96
2022-10-18T02:15:42.483Z,19.95
2022-10-18T02:18:50.207Z,19.95
2022-10-18T02:21:54.834Z,19.96
2022-10-18T02:24:58.696Z,19.94
2022-10-18T02:28:01.540Z,19.94
2022-10-18T02:31:07.822Z,19.94
2022-10-18T02:34:15.248Z,19.94
2022-10-18T02:37:18.742Z,19.91
2022-10-18T02:40:21.908Z,19.97
2022-10-18T02:43:25.327Z,19.92
2022-10-18T02:46:28.011Z,19.85
2022-10-18T02:49:32.077Z,19.88
2022-10-18T02:52:34.843Z,19.85
2022-10-18T02:55:37.491Z,19.86
2022-10-18T02:58:40.194Z,19.87
2022-10-18T03:01:42.882Z,19.87
2022-10-18T03:04:46.940Z,19.86
2022-10-18T03:07:49.672Z,19.87
2022-10-18T03:10:52.368Z,19.82
2022-10-18T03:13:55.010Z,19.86
2022-10-18T03:16:57.857Z,19.88
2022-10-18T03:20:01.846Z,19.89
2022-10-18T03:23:04.535Z,19.87
2022-10-18T03:26:07.190Z,19.86
2022-10-18T03:29:10.549Z,19.87
2022-10-18T03:32:13.295Z,19.87
2022-10-18T03:35:17.386Z,19.85
2022-10-18T03:38:20.066Z,19.87
2022-10-18T03:41:22.778Z,19.90
2022-10-18T03:44:25.446Z,19.87
2022-10-18T03:47:28.167Z,19.86
2022-10-18T03:50:32.320Z,19.83
2022-10-18T03:53:35.054Z,19.89
2022-10-18T03:56:37.753Z,19.90
2022-10-18T03:59:40.395Z,19.89
2022-10-18T04:02:43.127Z,19.91
2022-10-18T04:05:53.340Z,19.90
2022-10-18T04:08:56.380Z,19.90
2022-10-18T04:11:59.050Z,19.91
2022-10-18T04:15:01.745Z,19.81
2022-10-18T04:18:04.423Z,19.83
2022-10-18T04:21:08.622Z,19.84
2022-10-18T04:24:11.334Z,19.89
2022-10-18T04:27:13.988Z,19.88
2022-10-18T04:30:16.733Z,19.90
2022-10-18T04:33:19.439Z,19.87
2022-10-18T04:36:23.551Z,19.87
2022-10-18T04:39:26.293Z,19.90
2022-10-18T04:42:28.977Z,19.90
2022-10-18T04:45:31.629Z,19.89
2022-10-18T04:48:34.365Z,19.85
2022-10-18T04:51:38.368Z,19.88
2022-10-18T04:54:41.071Z,19.85
2022-10-18T04:57:43.729Z,19.86
2022-10-18T05:00:47.696Z,19.90
2022-10-18T05:03:52.807Z,19.86
2022-10-18T05:07:10.527Z,19.87
2022-10-18T05:10:13.174Z,19.89
2022-10-18T05:13:15.893Z,19.89
2022-10-18T05:16:18.724Z,19.92
2022-10-18T05:19:21.646Z,19.91
2022-10-18T05:22:25.784Z,19.89
2022-10-18T05:25:28.486Z,19.92
2022-10-18T05:28:39.106Z,19.91
2022-10-18T05:31:42.661Z,19.91
2022-10-18T05:34:45.298Z,19.92
2022-10-18T05:37:49.386Z,19.92
2022-10-18T05:40:52.073Z,19.91
2022-10-18T05:43:54.706Z,19.90
2022-10-18T05:46:57.412Z,19.92
2022-10-18T05:50:00.056Z,19.97
2022-10-18T05:53:12.141Z,19.98
2022-10-18T05:56:21.095Z,20.03
2022-10-18T05:59:23.925Z,20.03
2022-10-18T06:02:26.611Z,20.03
2022-10-18T06:05:29.413Z,20.08
2022-10-18T06:08:34.306Z,20.08
2022-10-18T06:11:37.369Z,20.05
2022-10-18T06:14:41.022Z,20.14
2022-10-18T06:17:43.713Z,20.14
2022-10-18T06:20:46.389Z,20.09
2022-10-18T06:23:51.226Z,20.10
2022-10-18T06:26:53.920Z,20.12
2022-10-18T06:29:56.701Z,20.16
2022-10-18T06:33:00.329Z,20.16
2022-10-18T06:36:03.882Z,20.16
2022-10-18T06:39:07.997Z,20.34
2022-10-18T06:42:10.711Z,20.26
2022-10-18T06:45:14.383Z,20.25
2022-10-18T06:48:17.436Z,20.24
2022-10-18T06:51:20.611Z,20.31
2022-10-18T06:54:24.725Z,20.30
2022-10-18T06:57:27.415Z,20.46
2022-10-18T07:00:30.270Z,20.58
2022-10-18T07:03:34.724Z,20.68
2022-10-18T07:06:37.416Z,20.70
2022-10-18T07:09:41.561Z,20.75
2022-10-18T07:12:44.194Z,20.83
2022-10-18T07:15:46.909Z,20.60
2022-10-18T07:18:50.478Z,20.91
2022-10-18T07:21:53.173Z,20.96
2022-10-18T07:24:57.250Z,20.92
2022-10-18T07:27:59.904Z,20.88
2022-10-18T07:31:06.261Z,20.86
2022-10-18T07:34:12.009Z,20.94
2022-10-18T07:37:14.751Z,20.91
2022-10-18T07:40:18.947Z,21.02
2022-10-18T07:43:21.617Z,21.00
2022-10-18T07:46:24.327Z,20.96
2022-10-18T07:49:26.960Z,20.98
2022-10-18T07:52:29.690Z,21.03
2022-10-18T07:55:33.744Z,21.13
2022-10-18T07:58:36.447Z,21.10
2022-10-18T08:01:39.134Z,21.08
2022-10-18T08:04:41.874Z,21.07
2022-10-18T08:07:44.532Z,21.08
2022-10-18T08:10:48.668Z,21.19
2022-10-18T08:13:54.346Z,21.15
2022-10-18T08:16:57.251Z,21.09
2022-10-18T08:20:11.503Z,21.03
2022-10-18T08:23:21.813Z,21.10
2022-10-18T08:26:25.847Z,21.03
2022-10-18T08:29:31.761Z,20.95
2022-10-18T08:32:35.093Z,20.94
2022-10-18T08:35:37.841Z,21.03
2022-10-18T08:38:41.410Z,21.10
2022-10-18T08:41:54.755Z,21.27
2022-10-18T08:44:57.658Z,21.25
2022-10-18T08:48:00.398Z,21.15
2022-10-18T08:51:05.160Z,21.36
2022-10-18T08:54:12.030Z,21.11
2022-10-18T08:57:18.122Z,21.26
2022-10-18T09:00:21.583Z,21.24
2022-10-18T09:03:31.276Z,21.33
2022-10-18T09:06:36.820Z,21.32
2022-10-18T09:09:43.240Z,21.31
2022-10-18T09:12:56.837Z,21.42
2022-10-18T09:16:00.777Z,21.45
2022-10-18T09:19:07.703Z,21.43
2022-10-18T09:22:14.198Z,21.55
2022-10-18T09:25:19.481Z,21.39
2022-10-18T09:28:31.595Z,21.37
2022-10-18T09:31:40.954Z,21.28
2022-10-18T09:34:50.755Z,21.44
2022-10-18T09:37:55.598Z,21.45
2022-10-18T09:41:01.161Z,21.45
2022-10-18T09:44:07.764Z,21.45
2022-10-18T09:47:16.836Z,21.48
2022-10-18T09:50:25.245Z,21.11
2022-10-18T09:53:34.158Z,21.16
2022-10-18T09:56:41.932Z,21.43
2022-10-18T09:59:47.700Z,21.36
2022-10-18T10:02:50.464Z,21.44
2022-10-18T10:06:03.208Z,21.41
2022-10-18T10:09:07.367Z,21.50
2022-10-18T10:12:26.010Z,21.43
2022-10-18T10:15:35.263Z,21.52
2022-10-18T10:18:42.055Z,21.52
2022-10-18T10:21:44.901Z,21.62
2022-10-18T10:24:49.358Z,21.67
2022-10-18T10:27:52.146Z,21.63
2022-10-18T10:30:56.150Z,21.78
2022-10-18T10:34:00.793Z,21.74
2022-10-18T10:37:04.881Z,21.79
2022-10-18T10:40:20.468Z,21.60
2022-10-18T10:43:41.995Z,21.78
2022-10-18T10:46:46.756Z,21.42
2022-10-18T10:49:49.489Z,21.50
2022-10-18T10:52:52.810Z,21.51
2022-10-18T10:55:56.192Z,21.61
2022-10-18T10:59:03.055Z,21.61
2022-10-18T11:02:23.599Z,21.57
2022-10-18T11:05:29.344Z,21.52
2022-10-18T11:08:36.841Z,21.50
2022-10-18T11:11:42.687Z,21.48
2022-10-18T11:14:47.094Z,21.49
2022-10-18T11:18:00.780Z,21.44
2022-10-18T11:21:07.944Z,21.39
2022-10-18T11:24:12.309Z,21.47
2022-10-18T11:27:18.952Z,21.47
2022-10-18T11:30:36.134Z,21.34
2022-10-18T11:34:07.606Z,21.27
2022-10-18T11:37:39.388Z,21.27
2022-10-18T11:40:45.183Z,21.21
2022-10-18T11:44:02.108Z,21.15
2022-10-18T11:47:10.400Z,21.11
2022-10-18T11:50:20.607Z,21.07
2022-10-18T11:53:27.843Z,21.02
2022-10-18T11:56:36.636Z,21.08
2022-10-18T11:59:41.957Z,21.26
2022-10-18T12:06:20.539Z,21.11
2022-10-18T12:09:26.806Z,21.17
2022-10-18T12:12:32.664Z,21.16
2022-10-18T12:15:37.933Z,21.17
2022-10-18T12:18:46.583Z,21.10
2022-10-18T12:21:50.804Z,21.10
2022-10-18T12:24:53.634Z,21.12
2022-10-18T12:31:08.975Z,21.24
2022-10-18T12:34:23.784Z,21.23
2022-10-18T12:37:41.574Z,21.17
2022-10-18T12:40:45.567Z,21.32
2022-10-18T12:43:52.576Z,21.28
2022-10-18T12:46:56.501Z,21.32
2022-10-18T12:50:00.348Z,21.26
2022-10-18T12:53:06.616Z,21.18
2022-10-18T12:56:27.785Z,21.17
2022-10-18T12:59:51.324Z,21.17
2022-10-18T13:03:21.832Z,21.30
2022-10-18T13:06:25.158Z,21.40
2022-10-18T13:09:30.263Z,21.29
2022-10-18T13:12:46.674Z,21.30
2022-10-18T13:15:53.595Z,21.40
2022-10-18T13:18:58.301Z,21.32
2022-10-18T13:22:11.468Z,21.35
2022-10-18T13:25:20.348Z,21.39
2022-10-18T13:28:27.614Z,21.37
2022-10-18T13:31:36.525Z,21.50
2022-10-18T13:34:39.272Z,21.45
2022-10-18T13:37:42.080Z,21.44
2022-10-18T13:40:46.124Z,21.42
2022-10-18T13:43:59.283Z,21.43
2022-10-18T13:47:19.882Z,21.39
2022-10-18T13:50:35.299Z,21.32
2022-10-18T13:53:48.176Z,21.28
2022-10-18T13:57:06.598Z,21.15
2022-10-18T14:00:20.566Z,21.10
2022-10-18T14:03:58.242Z,21.06
2022-10-18T14:07:04.660Z,20.91
2022-10-18T14:10:10.812Z,20.93
2022-10-18T14:13:19.658Z,20.74
2022-10-18T14:16:30.677Z,20.92
2022-10-18T14:19:35.988Z,20.86
2022-10-18T14:22:41.763Z,20.85
2022-10-18T14:25:49.561Z,20.99
2022-10-18T14:29:04.888Z,20.94
2022-10-18T14:32:09.729Z,20.72
2022-10-18T14:35:32.177Z,20.77
2022-10-18T14:38:36.565Z,20.65
2022-10-18T14:41:48.504Z,20.68
2022-10-18T14:44:54.375Z,20.63
2022-10-18T14:48:06.464Z,20.56
2022-10-18T14:51:11.187Z,20.58
2022-10-18T14:54:15.817Z,20.73
2022-10-18T14:57:20.117Z,20.71
2022-10-18T15:00:26.967Z,20.65
2022-10-18T15:03:33.286Z,20.63
2022-10-18T15:06:36.043Z,20.56
2022-10-18T15:09:38.816Z,20.66
2022-10-18T15:13:08.209Z,20.58
2022-10-18T15:16:07.192Z,20.62
2022-10-18T15:19:27.747Z,20.64
2022-10-18T15:22:32.445Z,20.59
2022-10-18T15:25:35.968Z,20.43
2022-10-18T15:28:49.549Z,20.53
2022-10-18T15:31:53.766Z,20.52
2022-10-18T15:35:07.378Z,20.46
2022-10-18T15:38:15.704Z,20.38
2022-10-18T15:41:37.012Z,20.43
2022-10-18T15:44:48.052Z,20.44
2022-10-18T15:48:00.841Z,20.38
2022-10-18T15:51:05.400Z,20.41
2022-10-18T15:54:19.850Z,20.39
2022-10-18T15:57:27.793Z,20.36
2022-10-18T16:00:33.907Z,20.52
2022-10-18T16:03:40.851Z,20.46
2022-10-18T16:06:43.699Z,20.60
2022-10-18T16:09:46.328Z,20.64
2022-10-18T16:12:49.084Z,20.55
2022-10-18T16:15:52.041Z,20.53
2022-10-18T16:18:56.588Z,20.50
2022-10-18T16:22:05.222Z,20.50
2022-10-18T16:25:09.732Z,20.60
2022-10-18T16:28:17.316Z,20.55
2022-10-18T16:31:21.119Z,20.55
2022-10-18T16:34:26.640Z,20.56
2022-10-18T16:37:29.400Z,20.54
2022-10-18T16:40:32.093Z,20.56
2022-10-18T16:43:35.569Z,20.60
2022-10-18T16:46:38.803Z,20.57
2022-10-18T16:49:44.682Z,20.70
2022-10-18T16:52:47.445Z,20.70
2022-10-18T16:55:53.020Z,20.78
2022-10-18T16:58:55.827Z,20.93
2022-10-18T17:01:58.660Z,20.95
2022-10-18T17:05:03.021Z,20.98
2022-10-18T17:08:05.987Z,20.99
2022-10-18T17:11:10.722Z,20.96
2022-10-18T17:14:13.466Z,20.95
2022-10-18T17:17:16.260Z,20.99
2022-10-18T17:20:22.448Z,20.98
2022-10-18T17:23:25.229Z,21.21
2022-10-18T17:26:29.613Z,21.08
2022-10-18T17:29:32.626Z,20.98
2022-10-18T17:32:35.348Z,21.06
2022-10-18T17:35:40.098Z,21.00
2022-10-18T17:38:42.871Z,20.97
2022-10-18T17:41:45.665Z,20.99
2022-10-18T17:44:48.468Z,20.98
2022-10-18T17:47:51.276Z,21.01
2022-10-18T17:50:55.425Z,21.06
2022-10-18T17:53:58.262Z,20.94
2022-10-18T17:57:01.076Z,20.84
2022-10-18T18:00:07.463Z,20.79
2022-10-18T18:03:10.291Z,20.72
2022-10-18T18:06:15.383Z,20.67
2022-10-18T18:09:18.059Z,20.64
2022-10-18T18:12:20.777Z,20.89
2022-10-18T18:15:23.666Z,20.82
2022-10-18T18:18:26.646Z,20.88
2022-10-18T18:21:30.805Z,20.95
2022-10-18T18:24:33.723Z,21.03
2022-10-18T18:27:36.633Z,20.96
2022-10-18T18:30:40.317Z,21.07
2022-10-18T18:33:46.414Z,20.98
2022-10-18T18:36:52.028Z,21.03
2022-10-18T18:39:54.823Z,21.00
2022-10-18T18:43:07.194Z,21.03
2022-10-18T18:46:20.426Z,21.02
2022-10-18T18:49:23.708Z,21.02
2022-10-18T18:52:27.754Z,21.04
2022-10-18T18:55:32.546Z,21.08
2022-10-18T18:58:35.825Z,21.02
2022-10-18T19:01:38.917Z,21.01
2022-10-18T19:04:44.856Z,21.05
2022-10-18T19:07:49.042Z,21.05
2022-10-18T19:10:51.872Z,21.03
2022-10-18T19:13:54.641Z,21.11
2022-10-18T19:16:58.936Z,21.18
2022-10-18T19:20:01.815Z,21.32
2022-10-18T19:23:05.859Z,21.51
2022-10-18T19:26:12.147Z,21.30
2022-10-18T19:29:15.952Z,21.45
2022-10-18T19:32:19.087Z,21.39
2022-10-18T19:35:30.637Z,21.40
2022-10-18T19:38:34.778Z,21.41
2022-10-18T19:41:37.485Z,21.31
2022-10-18T19:44:40.939Z,21.30
2022-10-18T19:47:43.645Z,21.27
2022-10-18T19:50:46.521Z,21.31
2022-10-18T19:53:50.644Z,21.28
2022-10-18T19:56:53.666Z,21.27
2022-10-18T19:59:56.818Z,21.27
2022-10-18T20:02:59.771Z,21.34
2022-10-18T20:06:03.138Z,21.40
2022-10-18T20:09:07.566Z,21.28
2022-10-18T20:12:10.355Z,21.25
2022-10-18T20:15:13.258Z,21.26
2022-10-18T20:18:16.256Z,21.26
2022-10-18T20:21:18.954Z,21.30
2022-10-18T20:24:22.981Z,21.28
2022-10-18T20:27:25.661Z,21.29
2022-10-18T20:30:28.413Z,21.50
2022-10-18T20:33:31.405Z,21.41
2022-10-18T20:36:34.547Z,21.36
2022-10-18T20:39:40.485Z,21.51
2022-10-18T20:42:43.428Z,21.34
2022-10-18T20:45:46.153Z,21.36
2022-10-18T20:48:49.696Z,21.38
2022-10-18T20:51:52.308Z,21.33
2022-10-18T20:54:56.405Z,21.31
2022-10-18T20:57:59.173Z,21.31
2022-10-18T21:01:08.487Z,21.34
2022-10-18T21:04:11.322Z,21.31
2022-10-18T21:07:14.085Z,21.29
2022-10-18T21:10:18.346Z,21.29
2022-10-18T21:13:21.070Z,21.28
2022-10-18T21:16:23.752Z,21.24
2022-10-18T21:19:28.028Z,21.25
2022-10-18T21:22:30.968Z,21.25
2022-10-18T21:25:35.228Z,21.25
2022-10-18T21:28:38.022Z,21.32
2022-10-18T21:31:41.744Z,21.20
2022-10-18T21:34:44.454Z,21.15
2022-10-18T21:37:47.143Z,21.16
2022-10-18T21:40:51.191Z,21.14
2022-10-18T21:43:55.045Z,21.11
2022-10-18T21:46:57.768Z,21.10
2022-10-18T21:50:00.486Z,21.12
2022-10-18T21:53:03.237Z,21.10
2022-10-18T21:56:08.555Z,21.06
2022-10-18T21:59:11.911Z,21.05
2022-10-18T22:02:14.559Z,21.03
2022-10-18T22:05:17.276Z,21.03
2022-10-18T22:08:19.938Z,21.12
2022-10-18T22:11:25.097Z,21.04
2022-10-18T22:14:27.788Z,21.00
2022-10-18T22:17:30.620Z,20.99
2022-10-18T22:20:33.440Z,21.00
2022-10-18T22:23:36.924Z,21.01
2022-10-18T22:26:42.253Z,21.01
2022-10-18T22:29:44.938Z,21.03
2022-10-18T22:32:47.672Z,21.02
2022-10-18T22:35:50.660Z,20.99
2022-10-18T22:38:53.500Z,20.95
2022-10-18T22:42:00.373Z,20.96
2022-10-18T22:45:03.097Z,20.97
2022-10-18T22:48:05.995Z,21.00
2022-10-18T22:51:08.789Z,20.97
2022-10-18T22:54:11.480Z,20.99
2022-10-18T22:57:15.521Z,21.00
2022-10-18T23:00:18.357Z,20.95
2022-10-18T23:03:21.022Z,20.97
2022-10-18T23:06:24.832Z,21.05
2022-10-18T23:09:27.568Z,21.03
2022-10-18T23:12:31.933Z,20.97
2022-10-18T23:15:34.872Z,20.96
2022-10-18T23:18:37.562Z,20.97
2022-10-18T23:21:40.240Z,20.94
2022-10-18T23:24:44.279Z,20.93
2022-10-18T23:27:48.320Z,20.92
2022-10-18T23:30:51.022Z,20.88
2022-10-18T23:33:54.894Z,20.89
2022-10-18T23:36:57.534Z,20.88
2022-10-18T23:40:00.402Z,20.85
2022-10-18T23:43:04.530Z,20.84
2022-10-18T23:46:07.466Z,20.85
2022-10-18T23:49:10.216Z,20.84
2022-10-18T23:52:12.935Z,20.84
2022-10-18T23:55:15.606Z,20.82
2022-10-18T23:58:19.676Z,20.82
